createdAt,value
2024-01-28T00:07:46.054Z,101831.72
2024-01-28T00:17:47.907Z,101833.41
2024-01-28T00:27:49.805Z,101823.78
2024-01-28T00:37:56.156Z,101833.59
2024-01-28T00:47:58.310Z,101830.69
2024-01-28T00:58:00.836Z,101838.31
2024-01-28T01:08:03.056Z,101843.28
2024-01-28T01:18:05.080Z,101838.09
2024-01-28T01:28:07.681Z,101852.53
2024-01-28T01:38:09.537Z,101841.28
2024-01-28T01:48:13.260Z,101840.25
2024-01-28T01:58:15.568Z,101836.38
2024-01-28T02:08:17.276Z,101809.03
2024-01-28T02:18:19.055Z,101834.13
2024-01-28T02:28:22.550Z,101804.38
2024-01-28T02:38:24.222Z,101848.88
2024-01-28T02:48:26.177Z,101853.09
2024-01-28T02:58:27.997Z,101849.41
2024-01-28T03:08:29.659Z,101855.91
2024-01-28T03:18:31.750Z,101859.44
2024-01-28T03:28:33.536Z,101858.34
2024-01-28T03:38:35.244Z,101867.03
2024-01-28T03:48:37.057Z,101881.06
2024-01-28T03:58:38.816Z,101865.53
2024-01-28T04:08:40.625Z,101868.25
2024-01-28T04:18:42.405Z,101893.66
2024-01-28T04:28:44.328Z,101882.91
2024-01-28T04:38:46.165Z,101887.66
2024-01-28T04:48:48.190Z,101880.56
2024-01-28T04:58:50.621Z,101917.47
2024-01-28T05:08:52.488Z,101912.84
2024-01-28T05:18:54.461Z,101935.59
2024-01-28T05:28:56.637Z,101923.56
2024-01-28T05:38:58.808Z,101908.25
2024-01-28T05:49:00.694Z,101929.00
2024-01-28T05:59:02.738Z,101903.75
2024-01-28T06:09:06.198Z,101939.34
2024-01-28T06:19:08.031Z,101946.88
2024-01-28T06:29:09.989Z,101936.53
2024-01-28T06:39:11.707Z,101929.78
2024-01-28T06:49:16.766Z,101936.34
2024-01-28T06:59:20.654Z,101975.03
2024-01-28T07:09:22.815Z,101993.63
2024-01-28T07:19:24.699Z,101997.16
2024-01-28T07:29:26.367Z,101997.69
2024-01-28T07:39:28.165Z,101996.28
2024-01-28T07:49:30.101Z,102027.84
2024-01-28T07:59:32.286Z,102011.19
2024-01-28T08:09:34.678Z,102015.28
2024-01-28T08:19:37.628Z,102018.13
2024-01-28T08:29:40.024Z,102029.00
2024-01-28T08:39:41.923Z,102015.44
2024-01-28T08:49:45.345Z,102017.50
2024-01-28T08:59:47.122Z,102022.59
2024-01-28T09:09:49.050Z,102039.88
2024-01-28T09:19:51.135Z,102050.53
2024-01-28T09:29:53.089Z,102071.44
2024-01-28T09:39:54.997Z,102039.47
2024-01-28T09:49:59.364Z,102055.28
2024-01-28T10:00:01.631Z,102055.19
2024-01-28T10:10:17.522Z,102030.16
2024-01-28T10:20:23.563Z,102040.22
2024-01-28T10:30:25.442Z,102022.91
2024-01-28T10:40:38.232Z,102025.75
2024-01-28T10:50:40.276Z,101977.00
2024-01-28T11:00:42.490Z,101989.09
2024-01-28T11:10:44.822Z,101981.66
2024-01-28T11:20:46.654Z,101971.38
2024-01-28T11:30:53.388Z,101977.75
2024-01-28T11:41:00.777Z,101960.47
2024-01-28T11:51:02.862Z,101952.06
2024-01-28T12:01:05.069Z,101933.69
2024-01-28T12:11:07.735Z,101924.44
2024-01-28T12:21:21.715Z,101926.28
2024-01-28T12:31:24.049Z,101921.03
2024-01-28T12:41:25.896Z,101898.22
2024-01-28T12:51:27.779Z,101892.53
2024-01-28T13:01:29.835Z,101895.44
2024-01-28T13:11:32.408Z,101885.34
2024-01-28T13:21:34.306Z,101869.75
2024-01-28T13:31:36.517Z,101845.75
2024-01-28T13:41:38.117Z,101851.28
2024-01-28T13:51:39.897Z,101825.56
2024-01-28T14:01:42.234Z,101837.47
2024-01-28T14:11:44.455Z,101842.50
2024-01-28T14:21:47.309Z,101824.75
2024-01-28T14:31:49.050Z,101804.53
2024-01-28T14:41:51.996Z,101813.03
2024-01-28T14:51:54.908Z,101808.38
2024-01-28T15:01:56.583Z,101823.00
2024-01-28T15:11:58.399Z,101809.53
2024-01-28T15:22:00.214Z,101814.91
2024-01-28T15:32:02.081Z,101809.06
2024-01-28T15:42:04.443Z,101817.53
2024-01-28T15:52:06.568Z,101825.16
2024-01-28T16:02:08.674Z,101822.28
2024-01-28T16:12:10.637Z,101838.53
2024-01-28T16:22:12.472Z,101853.75
2024-01-28T16:32:14.369Z,101849.69
2024-01-28T16:42:16.420Z,101831.28
2024-01-28T16:52:21.483Z,101855.06
2024-01-28T17:02:23.570Z,101859.59
2024-01-28T17:12:25.299Z,101865.81
2024-01-28T17:22:26.967Z,101883.56
2024-01-28T17:32:28.711Z,101859.47
2024-01-28T17:42:30.526Z,101854.06
2024-01-28T17:52:32.419Z,101859.91
2024-01-28T18:02:34.345Z,101869.94
2024-01-28T18:12:36.594Z,101875.41
2024-01-28T18:22:39.300Z,101891.84
2024-01-28T18:32:41.147Z,101898.59
2024-01-28T18:42:43.549Z,101876.88
2024-01-28T18:52:45.964Z,101902.72
2024-01-28T19:02:47.738Z,101903.84
2024-01-28T19:12:49.591Z,101903.00
2024-01-28T19:22:54.220Z,101905.03
2024-01-28T19:32:56.100Z,101887.00
2024-01-28T19:42:57.883Z,101873.91
2024-01-28T19:52:59.871Z,101891.63
2024-01-28T20:03:02.054Z,101891.13
2024-01-28T20:13:05.904Z,101887.78
2024-01-28T20:23:07.760Z,101893.53
2024-01-28T20:33:09.651Z,101888.06
2024-01-28T20:43:11.452Z,101916.06
2024-01-28T20:53:13.379Z,101901.19
2024-01-28T21:03:15.234Z,101892.53
2024-01-28T21:13:17.030Z,101891.53
2024-01-28T21:23:18.689Z,101903.41
2024-01-28T21:33:21.157Z,101903.91
2024-01-28T21:43:23.106Z,101894.28
2024-01-28T21:53:24.705Z,101893.59
2024-01-28T22:03:26.471Z,101914.53
2024-01-28T22:13:29.049Z,101921.88
2024-01-28T22:23:30.987Z,101915.91
2024-01-28T22:33:33.156Z,101907.19
2024-01-28T22:43:34.979Z,101895.38
2024-01-28T22:53:36.853Z,101916.66
2024-01-28T23:03:38.787Z,101894.31
2024-01-28T23:13:41.510Z,101904.66
2024-01-28T23:23:43.307Z,101886.28
2024-01-28T23:33:45.215Z,101890.50
2024-01-28T23:43:47.261Z,101883.03
2024-01-28T23:53:49.239Z,101878.56
